createdAt,value
2023-02-27T00:00:24.758Z,4.30
2023-02-27T00:01:25.000Z,5.10
2023-02-27T00:02:24.757Z,8.60
2023-02-27T00:03:24.725Z,8.60
2023-02-27T00:04:24.720Z,4.50
2023-02-27T00:05:24.710Z,6.60
2023-02-27T00:06:24.723Z,6.20
2023-02-27T00:07:24.693Z,6.40
2023-02-27T00:08:24.686Z,7.00
2023-02-27T00:09:24.680Z,9.00
2023-02-27T00:10:24.669Z,6.40
2023-02-27T00:11:24.925Z,9.10
2023-02-27T00:12:24.660Z,5.50
2023-02-27T00:13:24.655Z,8.20
2023-02-27T00:14:24.633Z,5.90
2023-02-27T00:15:24.638Z,8.10
2023-02-27T00:16:24.705Z,7.70
2023-02-27T00:17:24.616Z,6.40
2023-02-27T00:18:24.608Z,5.40
2023-02-27T00:19:24.603Z,5.90
2023-02-27T00:20:24.590Z,5.90
2023-02-27T00:21:24.869Z,7.40
2023-02-27T00:22:24.569Z,6.20
2023-02-27T00:23:24.568Z,5.60
2023-02-27T00:24:24.568Z,6.60
2023-02-27T00:25:24.558Z,4.90
2023-02-27T00:26:24.581Z,4.20
2023-02-27T00:27:24.538Z,6.00
2023-02-27T00:28:24.527Z,5.30
2023-02-27T00:29:24.519Z,4.30
2023-02-27T00:30:24.538Z,5.60
2023-02-27T00:31:24.842Z,7.20
2023-02-27T00:32:24.578Z,5.90
2023-02-27T00:33:24.484Z,6.10
2023-02-27T00:34:24.474Z,4.70
2023-02-27T00:35:24.474Z,4.60
2023-02-27T00:36:24.493Z,4.20
2023-02-27T00:37:24.454Z,5.70
2023-02-27T00:38:24.444Z,4.30
2023-02-27T00:39:24.450Z,5.10
2023-02-27T00:40:24.434Z,6.10
2023-02-27T00:41:24.537Z,9.00
2023-02-27T00:42:24.422Z,5.30
2023-02-27T00:43:24.409Z,5.90
2023-02-27T00:44:24.395Z,6.30
2023-02-27T00:45:24.377Z,6.30
2023-02-27T00:46:25.428Z,5.20
2023-02-27T00:47:24.378Z,3.70
2023-02-27T00:48:24.371Z,4.60
2023-02-27T00:49:24.367Z,3.50
2023-02-27T00:50:24.359Z,4.10
2023-02-27T00:51:24.713Z,5.30
2023-02-27T00:52:24.343Z,4.40
2023-02-27T00:53:24.350Z,4.90
2023-02-27T00:54:24.318Z,3.40
2023-02-27T00:55:26.916Z,5.10
2023-02-27T00:56:24.336Z,3.50
2023-02-27T00:57:24.325Z,4.40
2023-02-27T00:58:24.292Z,3.50
2023-02-27T00:59:24.268Z,4.30
2023-02-27T01:00:25.293Z,5.00
2023-02-27T01:01:24.419Z,4.00
2023-02-27T01:02:24.336Z,5.00
2023-02-27T01:03:24.252Z,5.00
2023-02-27T01:04:24.272Z,5.60
2023-02-27T01:05:24.242Z,3.70
2023-02-27T01:06:24.254Z,4.50
2023-02-27T01:07:25.091Z,2.40
2023-02-27T01:08:24.221Z,3.00
2023-02-27T01:09:24.208Z,5.50
2023-02-27T01:10:24.203Z,5.30
2023-02-27T01:11:24.543Z,3.30
2023-02-27T01:12:24.189Z,3.60
2023-02-27T01:13:24.223Z,3.70
2023-02-27T01:14:24.175Z,5.30
2023-02-27T01:15:24.166Z,4.40
2023-02-27T01:16:24.226Z,3.70
2023-02-27T01:17:24.153Z,5.10
2023-02-27T01:18:24.140Z,5.30
2023-02-27T01:19:24.141Z,3.60
2023-02-27T01:20:24.127Z,4.80
2023-02-27T01:21:24.405Z,4.00
2023-02-27T01:22:24.107Z,7.00
2023-02-27T01:23:24.109Z,6.50
2023-02-27T01:24:24.101Z,4.30
2023-02-27T01:25:24.095Z,4.00
2023-02-27T01:26:24.120Z,3.80
2023-02-27T01:27:24.076Z,4.10
2023-02-27T01:28:24.068Z,3.60
2023-02-27T01:29:24.807Z,4.80
2023-02-27T01:30:24.081Z,4.20
2023-02-27T01:31:24.081Z,3.10
2023-02-27T01:32:24.169Z,5.60
2023-02-27T01:33:24.027Z,4.40
2023-02-27T01:34:24.014Z,4.00
2023-02-27T01:35:24.013Z,2.90
2023-02-27T01:36:24.034Z,3.30
2023-02-27T01:37:23.994Z,3.60
2023-02-27T01:38:23.985Z,5.20
2023-02-27T01:39:23.987Z,4.40
2023-02-27T01:40:23.972Z,3.10
2023-02-27T01:41:24.119Z,4.30
2023-02-27T01:42:23.991Z,3.30
2023-02-27T01:43:23.938Z,4.20
2023-02-27T01:44:23.944Z,2.80
2023-02-27T01:45:23.932Z,4.70
2023-02-27T01:46:23.923Z,2.70
2023-02-27T01:47:23.941Z,3.90
2023-02-27T01:48:23.911Z,3.30
2023-02-27T01:49:23.898Z,4.70
2023-02-27T01:50:23.897Z,3.20
2023-02-27T01:51:23.919Z,4.20
2023-02-27T01:52:23.908Z,4.40
2023-02-27T01:53:23.874Z,4.10
2023-02-27T01:54:23.886Z,3.10
2023-02-27T01:55:23.850Z,3.00
2023-02-27T01:56:23.858Z,4.70
2023-02-27T01:57:23.885Z,4.80
2023-02-27T01:58:23.916Z,3.30
2023-02-27T01:59:23.826Z,3.80
2023-02-27T02:00:23.819Z,3.40
2023-02-27T02:01:23.954Z,2.50
2023-02-27T02:02:23.876Z,3.10
2023-02-27T02:03:23.802Z,3.60
2023-02-27T02:04:23.795Z,3.70
2023-02-27T02:05:23.777Z,3.50
2023-02-27T02:06:23.772Z,3.50
2023-02-27T02:07:23.845Z,4.00
2023-02-27T02:08:23.759Z,4.40
2023-02-27T02:09:23.757Z,3.50
2023-02-27T02:10:23.750Z,6.70
2023-02-27T02:11:23.895Z,3.20
2023-02-27T02:12:23.744Z,2.90
2023-02-27T02:13:24.725Z,3.90
2023-02-27T02:14:23.713Z,5.20
2023-02-27T02:15:23.709Z,2.80
2023-02-27T02:16:23.771Z,2.60
2023-02-27T02:17:23.721Z,2.60
2023-02-27T02:18:23.690Z,5.30
2023-02-27T02:19:23.679Z,3.80
2023-02-27T02:20:23.673Z,3.20
2023-02-27T02:21:23.829Z,3.20
2023-02-27T02:22:23.686Z,2.80
2023-02-27T02:23:23.641Z,3.90
2023-02-27T02:24:23.640Z,4.40
2023-02-27T02:25:23.636Z,2.80
2023-02-27T02:26:25.018Z,1.90
2023-02-27T02:27:24.633Z,2.60
2023-02-27T02:28:23.622Z,2.80
2023-02-27T02:29:23.614Z,2.50
2023-02-27T02:30:23.608Z,3.70
2023-02-27T02:31:23.711Z,2.80
2023-02-27T02:32:23.642Z,4.40
2023-02-27T02:33:23.577Z,2.80
2023-02-27T02:34:23.567Z,4.80
2023-02-27T02:35:23.554Z,2.00
2023-02-27T02:36:23.557Z,2.10
2023-02-27T02:37:23.579Z,3.40
2023-02-27T02:38:23.565Z,4.40
2023-02-27T02:39:23.533Z,2.50
2023-02-27T02:40:23.528Z,2.80
2023-02-27T02:41:23.650Z,3.00
2023-02-27T02:42:23.536Z,1.70
2023-02-27T02:43:23.514Z,3.90
2023-02-27T02:44:23.506Z,2.00
2023-02-27T02:45:23.509Z,2.10
2023-02-27T02:46:23.528Z,2.90
2023-02-27T02:47:23.501Z,3.70
2023-02-27T02:48:23.473Z,2.50
2023-02-27T02:49:23.486Z,3.00
2023-02-27T02:50:23.459Z,4.00
2023-02-27T02:51:23.450Z,4.00
2023-02-27T02:52:23.465Z,4.00
2023-02-27T02:53:23.979Z,4.60
2023-02-27T02:54:23.430Z,3.60
2023-02-27T02:55:23.427Z,3.70
2023-02-27T02:56:23.420Z,5.60
2023-02-27T02:57:23.437Z,5.50
2023-02-27T02:58:23.403Z,6.20
2023-02-27T02:59:23.394Z,4.70
2023-02-27T03:00:23.384Z,5.90
2023-02-27T03:01:23.429Z,5.90
2023-02-27T03:02:23.400Z,2.80
2023-02-27T03:03:23.368Z,6.40
2023-02-27T03:04:23.393Z,2.70
2023-02-27T03:05:23.350Z,3.30
2023-02-27T03:06:23.345Z,5.00
2023-02-27T03:07:23.382Z,2.70
2023-02-27T03:08:23.329Z,3.10
2023-02-27T03:09:23.322Z,5.40
2023-02-27T03:10:23.314Z,1.90
2023-02-27T03:11:23.303Z,3.40
2023-02-27T03:12:23.333Z,4.50
2023-02-27T03:13:23.307Z,2.60
2023-02-27T03:14:23.289Z,3.50
2023-02-27T03:15:23.281Z,1.50
2023-02-27T03:16:23.270Z,2.20
2023-02-27T03:17:23.252Z,4.50
2023-02-27T03:18:23.277Z,1.60
2023-02-27T03:19:23.252Z,1.90
2023-02-27T03:20:23.224Z,2.50
2023-02-27T03:21:24.292Z,2.40
2023-02-27T03:22:23.232Z,2.60
2023-02-27T03:23:23.245Z,2.50
2023-02-27T03:24:23.208Z,3.20
2023-02-27T03:25:23.198Z,3.00
2023-02-27T03:26:23.194Z,1.90
2023-02-27T03:27:23.181Z,2.90
2023-02-27T03:28:23.200Z,2.90
2023-02-27T03:29:23.169Z,2.60
2023-02-27T03:30:23.166Z,2.90
2023-02-27T03:31:23.220Z,1.80
2023-02-27T03:32:23.215Z,4.40
2023-02-27T03:33:23.172Z,2.50
2023-02-27T03:34:23.127Z,3.70
2023-02-27T03:35:24.126Z,3.70
2023-02-27T03:36:23.124Z,2.50
2023-02-27T03:37:23.110Z,4.20
2023-02-27T03:38:23.131Z,2.80
2023-02-27T03:39:23.109Z,2.40
2023-02-27T03:40:23.114Z,3.00
2023-02-27T03:41:23.103Z,4.00
2023-02-27T03:42:23.078Z,2.50
2023-02-27T03:43:23.101Z,2.60
2023-02-27T03:44:23.083Z,3.90
2023-02-27T03:45:23.059Z,1.60
2023-02-27T03:46:23.136Z,3.20
2023-02-27T03:47:23.046Z,3.20
2023-02-27T03:48:23.066Z,4.10
2023-02-27T03:49:23.030Z,3.40
2023-02-27T03:50:23.019Z,2.40
2023-02-27T03:51:23.018Z,3.40
2023-02-27T03:52:23.016Z,3.10
2023-02-27T03:53:23.027Z,2.40
2023-02-27T03:54:22.993Z,2.80
2023-02-27T03:55:22.986Z,1.60
2023-02-27T03:56:22.978Z,3.60
2023-02-27T03:57:22.983Z,2.40
2023-02-27T03:58:22.989Z,2.60
2023-02-27T03:59:22.961Z,4.10
2023-02-27T04:00:22.960Z,3.80
2023-02-27T04:01:22.969Z,2.60
2023-02-27T04:02:22.945Z,2.50
2023-02-27T04:03:22.961Z,2.50
2023-02-27T04:04:22.930Z,4.20
2023-02-27T04:05:22.911Z,2.60
2023-02-27T04:06:22.908Z,2.10
2023-02-27T04:07:22.907Z,3.80
2023-02-27T04:08:22.920Z,2.60
2023-02-27T04:09:22.883Z,4.90
2023-02-27T04:10:22.914Z,3.30
2023-02-27T04:11:22.866Z,3.60
2023-02-27T04:12:22.871Z,2.10
2023-02-27T04:13:22.878Z,3.00
2023-02-27T04:14:22.846Z,2.60
2023-02-27T04:15:22.837Z,4.10
2023-02-27T04:16:22.889Z,3.00
2023-02-27T04:17:22.834Z,4.80
2023-02-27T04:18:22.852Z,3.00
2023-02-27T04:19:22.813Z,2.70
2023-02-27T04:20:22.807Z,2.00
2023-02-27T04:21:22.792Z,3.40
2023-02-27T04:22:22.779Z,2.80
2023-02-27T04:23:22.808Z,4.20
2023-02-27T04:24:22.768Z,1.70
2023-02-27T04:25:22.763Z,5.00
2023-02-27T04:26:22.752Z,2.90
2023-02-27T04:27:22.751Z,2.30
2023-02-27T04:28:22.772Z,2.70
2023-02-27T04:29:22.747Z,5.70
2023-02-27T04:30:22.735Z,1.90
2023-02-27T04:31:22.794Z,6.20
2023-02-27T04:32:22.811Z,7.30
2023-02-27T04:33:22.733Z,4.10
2023-02-27T04:34:22.704Z,3.50
2023-02-27T04:35:22.695Z,3.90
2023-02-27T04:36:22.695Z,5.80
2023-02-27T04:37:22.688Z,4.10
2023-02-27T04:38:22.704Z,3.50
2023-02-27T04:39:22.688Z,3.70
2023-02-27T04:40:22.666Z,4.00
2023-02-27T04:41:22.649Z,3.90
2023-02-27T04:42:22.650Z,6.00
2023-02-27T04:43:22.913Z,5.30
2023-02-27T04:44:22.641Z,5.40
2023-02-27T04:45:22.656Z,15.20
2023-02-27T04:46:22.620Z,6.50
2023-02-27T04:47:22.639Z,8.70
2023-02-27T04:48:22.638Z,6.40
2023-02-27T04:49:22.605Z,5.90
2023-02-27T04:50:22.599Z,9.70
2023-02-27T04:51:22.591Z,5.80
2023-02-27T04:52:22.855Z,5.20
2023-02-27T04:53:22.574Z,5.60
2023-02-27T04:54:22.596Z,5.00
2023-02-27T04:55:22.565Z,5.50
2023-02-27T04:56:22.553Z,7.60
2023-02-27T04:57:22.541Z,7.70
2023-02-27T04:58:24.442Z,7.40
2023-02-27T04:59:22.553Z,5.00
2023-02-27T05:00:22.524Z,6.70
2023-02-27T05:01:22.516Z,6.30
2023-02-27T05:02:22.586Z,4.50
2023-02-27T05:03:22.498Z,5.50
2023-02-27T05:04:22.524Z,4.40
2023-02-27T05:05:22.483Z,6.40
2023-02-27T05:06:22.477Z,9.60
2023-02-27T05:07:22.474Z,6.50
2023-02-27T05:08:22.458Z,7.30
2023-02-27T05:09:22.479Z,5.20
2023-02-27T05:10:22.450Z,6.10
2023-02-27T05:11:22.437Z,4.60
2023-02-27T05:12:22.436Z,5.80
2023-02-27T05:13:22.433Z,4.20
2023-02-27T05:14:22.450Z,7.30
2023-02-27T05:15:22.413Z,7.00
2023-02-27T05:16:22.444Z,9.30
2023-02-27T05:17:23.311Z,14.70
2023-02-27T05:18:22.399Z,18.80
2023-02-27T05:19:22.403Z,17.90
2023-02-27T05:20:22.376Z,17.50
2023-02-27T05:21:22.372Z,14.00
2023-02-27T05:22:22.361Z,10.60
2023-02-27T05:23:22.353Z,8.60
2023-02-27T05:24:22.377Z,6.80
2023-02-27T05:25:22.333Z,6.30
2023-02-27T05:26:22.324Z,3.40
2023-02-27T05:27:22.321Z,5.20
2023-02-27T05:28:22.316Z,5.30
2023-02-27T05:29:22.332Z,4.00
2023-02-27T05:30:22.299Z,5.20
2023-02-27T05:31:22.325Z,7.10
2023-02-27T05:32:22.412Z,7.60
2023-02-27T05:33:22.280Z,10.40
2023-02-27T05:34:22.290Z,9.10
2023-02-27T05:35:22.266Z,12.60
2023-02-27T05:36:22.252Z,9.20
2023-02-27T05:37:22.256Z,9.00
2023-02-27T05:38:22.268Z,9.00
2023-02-27T05:39:22.258Z,8.30
2023-02-27T05:40:22.227Z,7.80
2023-02-27T05:41:22.216Z,7.60
2023-02-27T05:42:22.203Z,7.20
2023-02-27T05:43:22.220Z,5.00
2023-02-27T05:44:22.219Z,6.40
2023-02-27T05:45:22.189Z,6.40
2023-02-27T05:46:22.177Z,10.40
2023-02-27T05:47:22.176Z,4.10
2023-02-27T05:48:22.167Z,4.80
2023-02-27T05:49:22.176Z,5.30
2023-02-27T05:50:22.152Z,6.70
2023-02-27T05:51:22.171Z,7.90
2023-02-27T05:52:22.140Z,3.70
2023-02-27T05:53:22.144Z,5.90
2023-02-27T05:54:22.141Z,6.10
2023-02-27T05:55:22.127Z,5.90
2023-02-27T05:56:22.105Z,5.70
2023-02-27T05:57:22.100Z,4.60
2023-02-27T05:58:22.086Z,6.60
2023-02-27T05:59:23.108Z,5.60
2023-02-27T06:00:22.088Z,5.60
2023-02-27T06:01:22.064Z,6.20
2023-02-27T06:02:22.181Z,4.80
2023-02-27T06:03:22.121Z,5.30
2023-02-27T06:04:22.067Z,5.60
2023-02-27T06:05:22.052Z,9.00
2023-02-27T06:06:22.028Z,6.50
2023-02-27T06:07:22.037Z,7.30
2023-02-27T06:08:22.022Z,8.00
2023-02-27T06:09:22.036Z,5.80
2023-02-27T06:10:22.000Z,6.50
2023-02-27T06:11:21.999Z,6.40
2023-02-27T06:12:21.988Z,5.30
2023-02-27T06:13:21.981Z,5.80
2023-02-27T06:14:21.971Z,6.00
2023-02-27T06:15:21.988Z,4.90
2023-02-27T06:16:21.976Z,9.70
2023-02-27T06:17:21.957Z,8.80
2023-02-27T06:18:21.950Z,5.90
2023-02-27T06:19:21.939Z,5.40
2023-02-27T06:20:21.961Z,5.60
2023-02-27T06:21:21.922Z,6.30
2023-02-27T06:22:21.919Z,6.60
2023-02-27T06:23:21.913Z,5.20
2023-02-27T06:24:22.225Z,4.60
2023-02-27T06:25:22.945Z,5.30
2023-02-27T06:26:21.896Z,5.70
2023-02-27T06:27:21.888Z,8.30
2023-02-27T06:28:21.891Z,4.70
2023-02-27T06:29:21.882Z,6.90
2023-02-27T06:30:21.897Z,4.20
2023-02-27T06:31:21.858Z,5.30
2023-02-27T06:32:21.848Z,4.40
2023-02-27T06:33:21.850Z,6.20
2023-02-27T06:34:21.839Z,5.70
2023-02-27T06:35:21.870Z,4.80
2023-02-27T06:36:21.821Z,6.50
2023-02-27T06:37:21.903Z,5.10
2023-02-27T06:38:21.812Z,5.60
2023-02-27T06:39:22.802Z,3.50
2023-02-27T06:40:21.821Z,4.90
2023-02-27T06:41:21.794Z,2.60
2023-02-27T06:42:21.785Z,3.80
2023-02-27T06:43:21.768Z,5.70
2023-02-27T06:44:21.758Z,6.10
2023-02-27T06:45:21.779Z,6.00
2023-02-27T06:46:21.751Z,6.00
2023-02-27T06:47:22.739Z,6.80
2023-02-27T06:48:21.736Z,5.50
2023-02-27T06:49:21.722Z,5.00
2023-02-27T06:50:21.737Z,6.20
2023-02-27T06:51:21.715Z,7.40
2023-02-27T06:52:21.712Z,4.10
2023-02-27T06:53:21.700Z,7.00
2023-02-27T06:54:21.691Z,3.90
2023-02-27T06:55:21.700Z,6.80
2023-02-27T06:56:21.668Z,6.30
2023-02-27T06:57:21.669Z,9.10
2023-02-27T06:58:21.663Z,8.40
2023-02-27T06:59:21.646Z,7.50
2023-02-27T07:00:21.903Z,7.70
2023-02-27T07:01:21.666Z,5.70
2023-02-27T07:02:21.626Z,5.10
2023-02-27T07:03:21.620Z,7.10
2023-02-27T07:04:21.640Z,5.10
2023-02-27T07:05:21.629Z,5.30
2023-02-27T07:06:21.604Z,6.10
2023-02-27T07:07:36.466Z,7.00
2023-02-27T07:08:22.584Z,6.70
2023-02-27T07:09:21.573Z,7.00
2023-02-27T07:10:21.597Z,5.40
2023-02-27T07:11:21.564Z,4.50
2023-02-27T07:12:21.555Z,5.90
2023-02-27T07:13:21.544Z,7.50
2023-02-27T07:14:21.542Z,4.60
2023-02-27T07:15:21.912Z,7.30
2023-02-27T07:16:21.532Z,5.80
2023-02-27T07:17:21.519Z,5.70
2023-02-27T07:18:21.505Z,4.10
2023-02-27T07:19:21.498Z,4.80
2023-02-27T07:20:21.519Z,3.20
2023-02-27T07:21:21.502Z,4.00
2023-02-27T07:22:21.483Z,6.20
2023-02-27T07:23:21.474Z,4.10
2023-02-27T07:24:22.465Z,4.30
2023-02-27T07:25:21.456Z,3.50
2023-02-27T07:26:21.481Z,3.30
2023-02-27T07:27:21.438Z,4.80
2023-02-27T07:28:21.472Z,4.70
2023-02-27T07:29:21.418Z,4.00
2023-02-27T07:30:22.422Z,4.90
2023-02-27T07:31:21.505Z,4.00
2023-02-27T07:32:21.566Z,3.40
2023-02-27T07:33:21.399Z,3.50
2023-02-27T07:34:21.390Z,5.10
2023-02-27T07:35:21.386Z,3.50
2023-02-27T07:36:21.400Z,2.40
2023-02-27T07:37:21.370Z,2.70
2023-02-27T07:38:21.365Z,3.20
2023-02-27T07:39:21.351Z,3.10
2023-02-27T07:40:21.346Z,6.20
2023-02-27T07:41:30.306Z,10.40
2023-02-27T07:42:23.340Z,7.80
2023-02-27T07:43:21.323Z,5.80
2023-02-27T07:44:21.329Z,5.90
2023-02-27T07:45:21.306Z,5.30
2023-02-27T07:46:21.347Z,5.80
2023-02-27T07:47:21.366Z,7.00
2023-02-27T07:48:21.290Z,4.40
2023-02-27T07:49:21.276Z,5.30
2023-02-27T07:50:21.277Z,7.90
2023-02-27T07:51:21.292Z,4.40
2023-02-27T07:52:21.308Z,6.30
2023-02-27T07:53:21.249Z,6.20
2023-02-27T07:54:21.242Z,4.40
2023-02-27T07:55:21.240Z,3.90
2023-02-27T07:56:21.249Z,5.90
2023-02-27T07:57:21.275Z,5.00
2023-02-27T07:58:21.222Z,5.00
2023-02-27T07:59:21.211Z,6.30
2023-02-27T08:00:21.199Z,3.80
2023-02-27T08:01:21.218Z,3.80
2023-02-27T08:02:21.236Z,2.80
2023-02-27T08:03:21.177Z,4.00
2023-02-27T08:04:21.179Z,5.30
2023-02-27T08:05:21.165Z,3.90
2023-02-27T08:06:21.176Z,4.00
2023-02-27T08:07:21.162Z,2.90
2023-02-27T08:08:21.135Z,4.30
2023-02-27T08:09:21.132Z,2.90
2023-02-27T08:10:21.128Z,7.50
2023-02-27T08:11:21.156Z,3.50
2023-02-27T08:12:21.124Z,3.10
2023-02-27T08:13:42.243Z,6.20
2023-02-27T08:14:23.090Z,3.50
2023-02-27T08:15:21.092Z,3.60
2023-02-27T08:16:21.126Z,3.50
2023-02-27T08:17:21.072Z,3.40
2023-02-27T08:18:21.049Z,3.30
2023-02-27T08:19:21.053Z,10.20
2023-02-27T08:20:21.045Z,4.80
2023-02-27T08:21:21.031Z,3.70
2023-02-27T08:22:21.168Z,4.20
2023-02-27T08:23:21.020Z,5.40
2023-02-27T08:24:21.010Z,4.30
2023-02-27T08:25:21.006Z,4.90
2023-02-27T08:26:20.993Z,4.40
2023-02-27T08:27:21.210Z,5.50
2023-02-27T08:28:20.976Z,3.50
2023-02-27T08:29:20.967Z,4.00
2023-02-27T08:30:20.956Z,4.80
2023-02-27T08:31:20.984Z,3.00
2023-02-27T08:32:21.291Z,4.80
2023-02-27T08:33:20.931Z,3.50
2023-02-27T08:34:20.925Z,4.40
2023-02-27T08:35:20.925Z,4.10
2023-02-27T08:36:20.912Z,4.10
2023-02-27T08:37:21.242Z,4.50
2023-02-27T08:38:20.907Z,4.10
2023-02-27T08:39:20.881Z,2.90
2023-02-27T08:40:20.889Z,4.20
2023-02-27T08:41:20.866Z,3.20
2023-02-27T08:42:21.364Z,3.90
2023-02-27T08:43:20.850Z,3.70
2023-02-27T08:44:20.855Z,4.60
2023-02-27T08:45:20.838Z,5.70
2023-02-27T08:46:20.849Z,3.30
2023-02-27T08:47:21.252Z,4.10
2023-02-27T08:48:20.812Z,4.50
2023-02-27T08:49:21.677Z,5.10
2023-02-27T08:50:21.806Z,3.80
2023-02-27T08:51:20.790Z,4.90
2023-02-27T08:52:21.700Z,4.80
2023-02-27T08:53:20.775Z,5.60
2023-02-27T08:54:20.764Z,5.10
2023-02-27T08:55:20.759Z,2.80
2023-02-27T08:56:20.747Z,5.30
2023-02-27T08:57:20.769Z,4.30
2023-02-27T08:58:20.737Z,3.40
2023-02-27T08:59:20.726Z,4.30
2023-02-27T09:00:20.764Z,2.60
2023-02-27T09:01:20.789Z,4.90
2023-02-27T09:02:20.776Z,4.10
2023-02-27T09:03:20.693Z,4.90
2023-02-27T09:04:20.689Z,4.80
2023-02-27T09:05:20.681Z,2.20
2023-02-27T09:06:20.680Z,3.30
2023-02-27T09:07:20.692Z,4.50
2023-02-27T09:08:20.658Z,4.40
2023-02-27T09:09:20.656Z,3.80
2023-02-27T09:10:20.648Z,3.50
2023-02-27T09:11:20.641Z,2.90
2023-02-27T09:12:20.653Z,2.20
2023-02-27T09:13:20.625Z,6.70
2023-02-27T09:14:20.613Z,4.60
2023-02-27T09:15:20.619Z,2.20
2023-02-27T09:16:20.620Z,4.40
2023-02-27T09:17:20.621Z,3.80
2023-02-27T09:18:20.593Z,1.70
2023-02-27T09:19:20.581Z,2.70
2023-02-27T09:20:20.580Z,3.10
2023-02-27T09:21:20.583Z,1.50
2023-02-27T09:22:20.592Z,5.60
2023-02-27T09:23:20.595Z,3.00
2023-02-27T09:24:21.017Z,3.70
2023-02-27T09:25:21.535Z,2.20
2023-02-27T09:26:21.913Z,3.70
2023-02-27T09:27:21.877Z,5.40
2023-02-27T09:28:20.508Z,4.50
2023-02-27T09:29:20.499Z,3.90
2023-02-27T09:30:20.510Z,3.30
2023-02-27T09:31:20.562Z,2.10
2023-02-27T09:32:20.602Z,5.80
2023-02-27T09:33:20.470Z,3.20
2023-02-27T09:34:21.469Z,5.50
2023-02-27T09:35:20.482Z,3.10
2023-02-27T09:36:20.448Z,2.60
2023-02-27T09:37:20.464Z,1.70
2023-02-27T09:38:20.429Z,2.90
2023-02-27T09:39:20.434Z,3.10
2023-02-27T09:40:20.419Z,4.90
2023-02-27T09:41:20.407Z,3.10
2023-02-27T09:42:20.436Z,1.10
2023-02-27T09:43:20.400Z,3.60
2023-02-27T09:44:27.956Z,5.50
2023-02-27T09:45:21.375Z,2.40
2023-02-27T09:46:20.425Z,2.10
2023-02-27T09:47:20.420Z,1.80
2023-02-27T09:48:20.377Z,2.60
2023-02-27T09:49:20.341Z,1.50
2023-02-27T09:50:20.346Z,2.20
2023-02-27T09:51:20.329Z,2.20
2023-02-27T09:52:20.381Z,2.20
2023-02-27T09:53:20.469Z,1.50
2023-02-27T09:54:20.305Z,1.60
2023-02-27T09:55:20.325Z,0.80
2023-02-27T09:56:20.313Z,1.10
2023-02-27T09:57:20.296Z,1.30
2023-02-27T09:58:20.321Z,1.50
2023-02-27T09:59:20.306Z,1.20
2023-02-27T10:00:20.313Z,1.70
2023-02-27T10:01:20.253Z,1.00
2023-02-27T10:02:20.295Z,1.00
2023-02-27T10:03:20.287Z,0.70
2023-02-27T10:04:20.223Z,0.80
2023-02-27T10:05:20.235Z,1.30
2023-02-27T10:06:20.212Z,1.60
2023-02-27T10:07:20.193Z,2.20
2023-02-27T10:08:21.218Z,1.20
2023-02-27T10:09:20.189Z,1.00
2023-02-27T10:10:20.230Z,0.80
2023-02-27T10:11:20.175Z,0.70
2023-02-27T10:12:20.167Z,1.00
2023-02-27T10:13:20.185Z,1.20
2023-02-27T10:14:20.142Z,1.50
2023-02-27T10:15:20.133Z,1.10
2023-02-27T10:16:20.135Z,1.40
2023-02-27T10:17:20.132Z,1.00
2023-02-27T10:18:28.195Z,0.60
2023-02-27T10:19:22.110Z,2.00
2023-02-27T10:20:20.153Z,1.50
2023-02-27T10:21:20.092Z,1.80
2023-02-27T10:22:20.086Z,2.00
2023-02-27T10:23:20.103Z,0.90
2023-02-27T10:24:20.071Z,1.30
2023-02-27T10:25:30.271Z,0.70
2023-02-27T10:26:22.056Z,1.80
2023-02-27T10:27:20.049Z,1.30
2023-02-27T10:28:20.069Z,1.50
2023-02-27T10:29:20.033Z,1.10
2023-02-27T10:30:28.327Z,1.20
2023-02-27T10:31:22.040Z,1.10
2023-02-27T10:32:21.056Z,0.70
2023-02-27T10:33:20.031Z,0.50
2023-02-27T10:34:19.994Z,0.50
2023-02-27T10:35:19.991Z,2.40
2023-02-27T10:36:32.451Z,0.80
2023-02-27T10:37:21.970Z,1.80
2023-02-27T10:38:19.988Z,2.00
2023-02-27T10:39:19.958Z,1.00
2023-02-27T10:40:19.974Z,2.20
2023-02-27T10:41:19.932Z,2.30
2023-02-27T10:42:19.923Z,1.80
2023-02-27T10:43:19.940Z,1.40
2023-02-27T10:44:19.920Z,1.50
2023-02-27T10:45:19.910Z,1.00
2023-02-27T10:46:19.913Z,0.80
2023-02-27T10:47:19.886Z,1.40
2023-02-27T10:48:19.926Z,1.70
2023-02-27T10:49:19.877Z,1.10
2023-02-27T10:50:19.865Z,0.70
2023-02-27T10:51:19.854Z,1.30
2023-02-27T10:52:19.852Z,1.30
2023-02-27T10:53:19.869Z,1.40
2023-02-27T10:54:19.828Z,0.50
2023-02-27T10:55:19.824Z,1.20
2023-02-27T10:56:19.815Z,1.50
2023-02-27T10:57:19.811Z,1.90
2023-02-27T10:58:19.835Z,1.00
2023-02-27T10:59:19.798Z,0.70
2023-02-27T11:00:19.790Z,0.80
2023-02-27T11:01:19.805Z,1.80
2023-02-27T11:02:19.768Z,1.70
2023-02-27T11:03:20.800Z,2.10
2023-02-27T11:04:19.779Z,2.20
2023-02-27T11:05:19.780Z,1.00
2023-02-27T11:06:19.737Z,0.60
2023-02-27T11:07:19.723Z,1.10
2023-02-27T11:08:19.721Z,1.10
2023-02-27T11:09:19.745Z,2.00
2023-02-27T11:10:19.718Z,1.70
2023-02-27T11:11:19.693Z,2.50
2023-02-27T11:12:19.706Z,1.50
2023-02-27T11:13:19.687Z,0.60
2023-02-27T11:14:20.027Z,1.30
2023-02-27T11:15:19.689Z,2.20
2023-02-27T11:16:19.743Z,1.30
2023-02-27T11:17:19.653Z,0.50
2023-02-27T11:18:19.667Z,0.80
2023-02-27T11:19:20.008Z,1.60
2023-02-27T11:20:19.647Z,1.10
2023-02-27T11:21:19.645Z,1.40
2023-02-27T11:22:19.621Z,3.40
2023-02-27T11:23:19.618Z,2.60
2023-02-27T11:24:19.631Z,0.50
2023-02-27T11:25:19.609Z,1.40
2023-02-27T11:26:19.598Z,0.50
2023-02-27T11:27:19.579Z,0.50
2023-02-27T11:28:19.582Z,1.30
2023-02-27T11:29:19.592Z,2.50
2023-02-27T11:30:19.560Z,1.40
2023-02-27T11:31:19.557Z,1.20
2023-02-27T11:32:19.620Z,1.50
2023-02-27T11:33:19.536Z,1.90
2023-02-27T11:34:19.559Z,1.80
2023-02-27T11:35:19.517Z,1.20
2023-02-27T11:36:19.563Z,1.60
2023-02-27T11:37:19.507Z,1.80
2023-02-27T11:38:19.500Z,2.10
2023-02-27T11:39:19.521Z,1.30
2023-02-27T11:40:19.485Z,2.00
2023-02-27T11:41:19.475Z,0.80
2023-02-27T11:42:19.464Z,0.60
2023-02-27T11:43:19.457Z,0.70
2023-02-27T11:44:23.934Z,0.70
2023-02-27T11:46:04.714Z,2.50
2023-02-27T11:46:44.313Z,2.30
2023-02-27T11:47:20.496Z,1.20
2023-02-27T11:48:19.417Z,0.70
2023-02-27T11:49:19.444Z,1.30
2023-02-27T11:50:19.413Z,2.80
2023-02-27T11:51:19.411Z,1.70
2023-02-27T11:52:19.400Z,0.90
2023-02-27T11:53:19.385Z,0.50
2023-02-27T11:54:19.374Z,1.40
2023-02-27T11:55:19.387Z,1.20
2023-02-27T11:56:19.362Z,1.80
2023-02-27T11:57:19.348Z,3.30
2023-02-27T11:58:19.384Z,1.80
2023-02-27T11:59:19.334Z,1.50
2023-02-27T12:00:19.358Z,1.40
2023-02-27T12:01:19.318Z,0.90
2023-02-27T12:02:19.325Z,3.00
2023-02-27T12:03:19.314Z,1.10
2023-02-27T12:04:19.381Z,0.90
2023-02-27T12:05:19.322Z,2.10
2023-02-27T12:06:19.297Z,1.00
2023-02-27T12:07:19.269Z,2.30
2023-02-27T12:08:19.257Z,1.30
2023-02-27T12:09:19.288Z,0.60
2023-02-27T12:10:19.300Z,2.00
2023-02-27T12:11:19.242Z,1.70
2023-02-27T12:12:19.224Z,1.50
2023-02-27T12:13:19.228Z,1.40
2023-02-27T12:14:19.217Z,1.10
2023-02-27T12:15:19.229Z,0.70
2023-02-27T12:16:19.262Z,2.00
2023-02-27T12:17:19.177Z,0.40
2023-02-27T12:18:20.178Z,1.40
2023-02-27T12:19:19.204Z,2.10
2023-02-27T12:20:19.201Z,1.10
2023-02-27T12:21:19.163Z,0.90
2023-02-27T12:22:19.160Z,0.80
2023-02-27T12:23:19.149Z,1.30
2023-02-27T12:24:19.131Z,1.00
2023-02-27T12:25:19.175Z,1.20
2023-02-27T12:26:19.112Z,1.30
2023-02-27T12:27:19.113Z,0.90
2023-02-27T12:28:19.108Z,1.80
2023-02-27T12:29:19.090Z,2.00
2023-02-27T12:30:19.109Z,1.30
2023-02-27T12:31:19.105Z,1.20
2023-02-27T12:32:19.111Z,1.50
2023-02-27T12:33:19.069Z,1.60
2023-02-27T12:34:19.058Z,2.10
2023-02-27T12:35:19.067Z,1.40
2023-02-27T12:36:19.032Z,1.50
2023-02-27T12:37:19.029Z,0.80
2023-02-27T12:38:19.022Z,0.60
2023-02-27T12:39:19.009Z,1.70
2023-02-27T12:40:19.037Z,1.80
2023-02-27T12:41:18.995Z,1.00
2023-02-27T12:42:18.994Z,1.20
2023-02-27T12:43:18.985Z,1.90
2023-02-27T12:44:18.973Z,0.80
2023-02-27T12:45:18.983Z,1.20
2023-02-27T12:46:18.957Z,1.20
2023-02-27T12:47:18.943Z,1.60
2023-02-27T12:48:18.936Z,3.10
2023-02-27T12:49:18.932Z,1.20
2023-02-27T12:50:18.918Z,0.40
2023-02-27T12:51:18.948Z,3.10
2023-02-27T12:52:18.906Z,0.60
2023-02-27T12:53:18.896Z,1.20
2023-02-27T12:54:18.891Z,2.30
2023-02-27T12:55:18.905Z,2.20
2023-02-27T12:56:18.905Z,1.30
2023-02-27T12:57:18.868Z,0.60
2023-02-27T12:58:18.862Z,1.00
2023-02-27T12:59:18.854Z,1.30
2023-02-27T13:00:18.850Z,1.90
2023-02-27T13:01:18.904Z,1.00
2023-02-27T13:02:18.836Z,2.40
2023-02-27T13:03:18.828Z,2.40
2023-02-27T13:04:18.891Z,0.40
2023-02-27T13:05:18.812Z,1.90
2023-02-27T13:06:18.830Z,0.50
2023-02-27T13:07:18.791Z,2.00
2023-02-27T13:08:18.792Z,1.60
2023-02-27T13:09:18.783Z,0.70
2023-02-27T13:10:18.774Z,1.70
2023-02-27T13:11:18.802Z,3.40
2023-02-27T13:12:18.750Z,2.50
2023-02-27T13:13:18.752Z,0.50
2023-02-27T13:14:18.745Z,1.90
2023-02-27T13:15:18.735Z,1.20
2023-02-27T13:16:18.804Z,1.00
2023-02-27T13:17:18.732Z,1.80
2023-02-27T13:18:18.714Z,1.00